Time;durP1;ratioP1;P1;durP2;ratioP2;P2;SDS_P1;SDS_P2;PMS_P1;PMS_P2;Temp;Humidity;BMP_temperature;BMP_pressure;BME280_temperature;BME280_humidity;BME280_pressure;Samples;Min_cycle;Max_cycle;Signal;HPM_P1;HPM_P2
2023/05/11 00:01:24;;;;;;;;;;;;;;;11.66;100.00;101418.56;4971117;28;20439;-72
2023/05/11 00:03:49;;;;;;;;;;;;;;;11.70;100.00;101422.75;4978490;28;19941;-71
2023/05/11 00:06:14;;;;;;;;;;;;;;;11.75;100.00;101422.44;4979227;28;19925;-71
2023/05/11 00:08:39;;;;;;;;;;;;;;;11.75;100.00;101417.06;4981688;28;20339;-71
2023/05/11 00:11:06;;;;;;;;;;;;;;;11.77;100.00;101415.13;4976905;28;20292;-71
2023/05/11 00:13:31;;;;;;;;;;;;;;;11.79;100.00;101407.78;4978570;28;19925;-71
2023/05/11 00:15:56;;;;;;;;;;;;;;;11.78;100.00;101406.09;4963837;28;19929;-71
2023/05/11 00:18:22;;;;;;;;;;;;;;;11.73;100.00;101414.47;4979973;28;19921;-71
2023/05/11 00:20:47;;;;;;;;;;;;;;;11.73;100.00;101413.63;4980041;28;19922;-71
2023/05/11 00:23:12;;;;;;;;;;;;;;;11.62;100.00;101391.06;4983450;28;19976;-72
2023/05/11 00:25:38;;;;;;;;;;;;;;;11.83;100.00;101406.56;4981345;28;19921;-71
2023/05/11 00:28:03;;;;;;;;;;;;;;;11.78;100.00;101415.00;4985399;28;19922;-71
2023/05/11 00:30:28;;;;;;;;;;;;;;;11.73;100.00;101406.41;4987063;28;20477;-71
2023/05/11 00:32:53;;;;;;;;;;;;;;;11.79;100.00;101410.47;4983437;28;20630;-71
2023/05/11 00:35:19;;;;;;;;;;;;;;;11.79;100.00;101407.78;4982055;28;20418;-71
2023/05/11 00:37:44;;;;;;;;;;;;;;;11.80;100.00;101402.28;4983338;28;20678;-72
2023/05/11 00:40:09;;;;;;;;;;;;;;;11.81;100.00;101403.13;4976063;28;19928;-71
2023/05/11 00:42:35;;;;;;;;;;;;;;;11.79;100.00;101408.66;4984402;28;19975;-72
2023/05/11 00:45:00;;;;;;;;;;;;;;;11.81;100.00;101401.31;4982473;28;19957;-72
2023/05/11 00:47:25;;;;;;;;;;;;;;;11.76;100.00;101406.19;4970634;28;20272;-71
2023/05/11 00:49:51;;;;;;;;;;;;;;;11.70;100.00;101403.94;4983518;28;20440;-71
2023/05/11 00:52:16;;;;;;;;;;;;;;;11.75;100.00;101403.63;4984612;28;20435;-72
2023/05/11 00:54:41;;;;;;;;;;;;;;;11.76;100.00;101399.97;4987084;28;19928;-71
2023/05/11 00:57:07;;;;;;;;;;;;;;;11.73;100.00;101402.88;4973268;28;19965;-71
2023/05/11 00:59:32;;;;;;;;;;;;;;;11.66;100.00;101408.69;4967523;28;20012;-71
2023/05/11 01:01:57;;;;;;;;;;;;;;;11.61;100.00;101401.94;4965680;28;19928;-71
2023/05/11 01:04:22;;;;;;;;;;;;;;;11.63;100.00;101403.53;4965437;28;19957;-71
2023/05/11 01:06:48;;;;;;;;;;;;;;;11.66;100.00;101399.75;4985844;28;19922;-71
2023/05/11 01:09:32;;;;;;;;;;;;;;;11.69;100.00;101408.47;4981021;28;20207;-71
2023/05/11 01:12:05;;;;;;;;;;;;;;;11.68;100.00;101405.88;4985920;28;19930;-71
2023/05/11 01:14:34;;;;;;;;;;;;;;;11.64;100.00;101404.41;4983360;28;19976;-71
2023/05/11 01:17:01;;;;;;;;;;;;;;;11.61;100.00;101412.69;4986612;28;20157;-71
2023/05/11 01:19:38;;;;;;;;;;;;;;;11.54;100.00;101410.44;4978984;28;19922;-71
2023/05/11 01:22:06;;;;;;;;;;;;;;;11.54;100.00;101415.81;4969769;28;20407;-71
2023/05/11 01:25:04;;;;;;;;;;;;;;;11.58;100.00;101416.44;4985114;28;19965;-71
2023/05/11 01:27:50;;;;;;;;;;;;;;;11.59;100.00;101417.31;4978977;28;19925;-71
2023/05/11 01:30:23;;;;;;;;;;;;;;;11.58;100.00;101415.59;4987514;28;20324;-71
2023/05/11 01:32:49;;;;;;;;;;;;;;;11.54;100.00;101417.66;4985647;28;19955;-71
2023/05/11 01:35:17;;;;;;;;;;;;;;;11.50;100.00;101416.19;4985746;28;19988;-71
2023/05/11 01:37:44;;;;;;;;;;;;;;;11.55;100.00;101411.28;4983164;28;19922;-71
2023/05/11 01:40:11;;;;;;;;;;;;;;;11.57;100.00;101422.81;4977834;28;19976;-71
2023/05/11 01:43:12;;;;;;;;;;;;;;;11.55;100.00;101422.94;4986967;28;20710;-71
2023/05/11 01:45:38;;;;;;;;;;;;;;;11.57;100.00;101419.28;4964454;28;20032;-71
2023/05/11 01:48:04;;;;;;;;;;;;;;;11.49;100.00;101404.53;4975448;28;19921;-71
2023/05/11 01:50:29;;;;;;;;;;;;;;;11.63;100.00;101421.50;4966511;28;20356;-71
2023/05/11 01:52:54;;;;;;;;;;;;;;;11.64;100.00;101428.63;4986729;28;19944;-71
2023/05/11 01:55:20;;;;;;;;;;;;;;;11.60;100.00;101427.97;4987764;28;19963;-71
2023/05/11 01:57:46;;;;;;;;;;;;;;;11.63;100.00;101434.97;4981074;28;19922;-72
2023/05/11 02:00:11;;;;;;;;;;;;;;;11.64;100.00;101428.63;4985439;28;19956;-72
2023/05/11 02:02:36;;;;;;;;;;;;;;;11.64;100.00;101426.78;4975865;28;19921;-72
2023/05/11 02:05:02;;;;;;;;;;;;;;;11.62;100.00;101431.41;4976707;28;19922;-73
2023/05/11 02:07:29;;;;;;;;;;;;;;;11.54;100.00;101426.59;4964391;28;19922;-72
2023/05/11 02:09:54;;;;;;;;;;;;;;;11.55;100.00;101433.69;4984189;28;20469;-72
2023/05/11 02:12:19;;;;;;;;;;;;;;;11.53;100.00;101432.94;4987689;28;19926;-72
2023/05/11 02:14:45;;;;;;;;;;;;;;;11.52;100.00;101435.75;4978956;28;20000;-72
2023/05/11 02:17:10;;;;;;;;;;;;;;;11.58;100.00;101432.59;4981985;28;21687;-72
2023/05/11 02:19:36;;;;;;;;;;;;;;;11.56;100.00;101434.53;4986945;28;19926;-72
2023/05/11 02:22:01;;;;;;;;;;;;;;;11.56;100.00;101434.53;4987065;28;19922;-72
2023/05/11 02:24:27;;;;;;;;;;;;;;;11.61;100.00;101429.69;4986902;28;20147;-72
2023/05/11 02:26:52;;;;;;;;;;;;;;;11.64;100.00;101432.16;4980738;28;19922;-72
2023/05/11 02:29:18;;;;;;;;;;;;;;;11.66;100.00;101432.91;4982649;28;20407;-72
2023/05/11 02:32:03;;;;;;;;;;;;;;;11.61;100.00;101429.69;4980894;28;19929;-72
2023/05/11 02:34:28;;;;;;;;;;;;;;;11.67;100.00;101439.13;4978296;28;19965;-72
2023/05/11 02:36:55;;;;;;;;;;;;;;;11.72;100.00;101436.13;4985128;28;19963;-72
2023/05/11 02:39:23;;;;;;;;;;;;;;;11.76;100.00;101435.78;4980108;28;20028;-72
2023/05/11 02:41:49;;;;;;;;;;;;;;;11.79;100.00;101429.28;4980705;28;20435;-72
2023/05/11 02:44:14;;;;;;;;;;;;;;;11.78;100.00;101420.38;4966780;28;19930;-72
2023/05/11 02:46:40;;;;;;;;;;;;;;;11.81;100.00;101430.91;4976970;28;20341;-72
2023/05/11 02:49:06;;;;;;;;;;;;;;;11.80;100.00;101420.25;4972468;28;19923;-72
2023/05/11 02:51:33;;;;;;;;;;;;;;;11.73;100.00;101424.38;4983508;28;20482;-72
2023/05/11 02:53:58;;;;;;;;;;;;;;;11.67;100.00;101423.84;4989096;28;19929;-72
2023/05/11 02:56:23;;;;;;;;;;;;;;;11.64;100.00;101424.09;4988419;28;19918;-72
2023/05/11 02:58:49;;;;;;;;;;;;;;;11.62;100.00;101423.34;4989183;28;20441;-72
2023/05/11 03:01:15;;;;;;;;;;;;;;;11.60;100.00;101419.06;4987270;28;19933;-72
2023/05/11 03:03:40;;;;;;;;;;;;;;;11.54;100.00;101418.53;4985562;28;19934;-72
2023/05/11 03:06:05;;;;;;;;;;;;;;;11.52;100.00;101423.16;4972598;28;20041;-72
2023/05/11 03:08:31;;;;;;;;;;;;;;;11.46;100.00;101417.38;4990089;28;19921;-72
2023/05/11 03:10:56;;;;;;;;;;;;;;;11.38;100.00;101409.84;4967906;28;19918;-72
2023/05/11 03:13:21;;;;;;;;;;;;;;;11.31;100.00;101411.25;4985156;28;19918;-72
2023/05/11 03:15:47;;;;;;;;;;;;;;;11.31;100.00;101413.94;4986806;28;19929;-72
2023/05/11 03:18:12;;;;;;;;;;;;;;;11.32;100.00;101416.50;4985975;28;19922;-72
2023/05/11 03:20:38;;;;;;;;;;;;;;;11.35;100.00;101424.38;4985878;28;20381;-72
2023/05/11 03:23:04;;;;;;;;;;;;;;;11.40;100.00;101421.34;4986505;28;20667;-72
2023/05/11 03:25:29;;;;;;;;;;;;;;;11.47;100.00;101427.16;4988459;28;20004;-72
2023/05/11 03:27:55;;;;;;;;;;;;;;;11.54;100.00;101425.72;4988160;28;20005;-72
2023/05/11 03:30:20;;;;;;;;;;;;;;;11.57;100.00;101428.19;4989480;28;20024;-72
2023/05/11 03:32:45;;;;;;;;;;;;;;;11.56;100.00;101431.84;4986331;28;19922;-71
2023/05/11 03:35:10;;;;;;;;;;;;;;;11.48;100.00;101432.41;4994162;28;19921;-72
2023/05/11 03:37:37;;;;;;;;;;;;;;;11.50;100.00;101430.47;4989244;28;20266;-72
2023/05/11 03:40:02;;;;;;;;;;;;;;;11.57;100.00;101438.09;4989905;28;20383;-71
2023/05/11 03:42:27;;;;;;;;;;;;;;;11.56;100.00;101434.53;4986961;28;19952;-72
2023/05/11 03:44:54;;;;;;;;;;;;;;;11.55;100.00;101432.81;4974027;28;19921;-71
2023/05/11 03:47:20;;;;;;;;;;;;;;;11.50;100.00;101425.09;4990212;28;19927;-72
2023/05/11 03:49:45;;;;;;;;;;;;;;;11.56;100.00;101426.47;4986997;28;19925;-72
2023/05/11 03:52:11;;;;;;;;;;;;;;;11.62;100.00;101423.34;4967582;28;19922;-72
2023/05/11 03:54:36;;;;;;;;;;;;;;;11.52;100.00;101411.53;4987632;28;20380;-71
2023/05/11 03:57:01;;;;;;;;;;;;;;;11.55;100.00;101420.25;4977017;28;19928;-72
2023/05/11 03:59:26;;;;;;;;;;;;;;;11.50;100.00;101421.56;4988042;28;20511;-72
2023/05/11 04:01:52;;;;;;;;;;;;;;;11.44;100.00;101424.69;4986156;28;20012;-72
2023/05/11 04:04:18;;;;;;;;;;;;;;;11.47;100.00;101424.47;4969606;28;20003;-72
2023/05/11 04:06:43;;;;;;;;;;;;;;;11.53;100.00;101424.88;4971212;28;20484;-72
2023/05/11 04:09:09;;;;;;;;;;;;;;;11.52;100.00;101423.16;4987205;28;19922;-71
2023/05/11 04:11:37;;;;;;;;;;;;;;;11.52;100.00;101422.31;4989137;28;19941;-72
2023/05/11 04:14:03;;;;;;;;;;;;;;;11.59;100.00;101425.41;4989313;28;20296;-72
2023/05/11 04:16:28;;;;;;;;;;;;;;;11.57;100.00;101416.56;4982467;28;19929;-72
2023/05/11 04:18:53;;;;;;;;;;;;;;;11.61;100.00;101424.31;4987155;28;19932;-72
2023/05/11 04:21:19;;;;;;;;;;;;;;;11.58;100.00;101427.22;4990438;28;19929;-72
2023/05/11 04:23:44;;;;;;;;;;;;;;;11.62;100.00;101430.56;4984434;28;19960;-72
2023/05/11 04:26:09;;;;;;;;;;;;;;;11.59;100.00;101430.78;4988109;28;20261;-72
2023/05/11 04:28:34;;;;;;;;;;;;;;;11.58;100.00;101431.75;4970164;28;19983;-72
2023/05/11 04:31:00;;;;;;;;;;;;;;;11.65;100.00;101438.41;4989222;28;20012;-72
2023/05/11 04:33:25;;;;;;;;;;;;;;;11.70;100.00;101441.59;4986898;28;19922;-72
2023/05/11 04:35:51;;;;;;;;;;;;;;;11.67;100.00;101441.81;4985422;28;19984;-72
2023/05/11 04:38:16;;;;;;;;;;;;;;;11.76;100.00;101437.63;4970737;28;19940;-72
2023/05/11 04:40:42;;;;;;;;;;;;;;;11.77;100.00;101442.88;4986060;28;20422;-72
2023/05/11 04:43:07;;;;;;;;;;;;;;;11.65;100.00;101444.63;4971331;28;21259;-72
2023/05/11 04:45:32;;;;;;;;;;;;;;;11.66;100.00;101440.97;4970179;28;20447;-72
2023/05/11 04:47:57;;;;;;;;;;;;;;;11.65;100.00;101439.25;4970577;28;19928;-72
2023/05/11 04:50:23;;;;;;;;;;;;;;;11.70;100.00;101441.59;4984005;28;19921;-72
2023/05/11 04:52:48;;;;;;;;;;;;;;;11.72;100.00;101450.41;4988082;28;19960;-71
2023/05/11 04:55:13;;;;;;;;;;;;;;;11.80;100.00;101452.53;4984284;28;19926;-71
2023/05/11 04:57:39;;;;;;;;;;;;;;;11.91;100.00;101449.09;4985592;28;19968;-72
2023/05/11 05:00:08;;;;;;;;;;;;;;;11.99;100.00;101444.00;4985200;28;19922;-72
2023/05/11 05:02:33;;;;;;;;;;;;;;;12.00;100.00;101443.91;4985154;28;19924;-72
2023/05/11 05:04:59;;;;;;;;;;;;;;;12.02;100.00;101454.53;4987504;28;19917;-72
2023/05/11 05:07:24;;;;;;;;;;;;;;;12.08;100.00;101451.41;4988062;28;20609;-72
2023/05/11 05:09:50;;;;;;;;;;;;;;;12.12;100.00;101452.03;4985295;28;19926;-72
2023/05/11 05:12:15;;;;;;;;;;;;;;;12.16;100.00;101442.75;4986694;28;19965;-72
2023/05/11 05:14:40;;;;;;;;;;;;;;;12.24;100.00;101447.53;4987136;28;20009;-72
2023/05/11 05:17:06;;;;;;;;;;;;;;;12.26;100.00;101446.47;5038317;23;19935;-71
2023/05/11 05:19:31;;;;;;;;;;;;;;;12.32;100.00;101439.75;5026312;28;19924;-71
2023/05/11 05:21:56;;;;;;;;;;;;;;;12.34;100.00;101439.63;5021935;28;19921;-72
2023/05/11 05:24:22;;;;;;;;;;;;;;;12.36;100.00;101446.63;5023368;28;19929;-72
2023/05/11 05:26:47;;;;;;;;;;;;;;;12.21;100.00;101445.09;5023736;28;20031;-72
2023/05/11 05:29:12;;;;;;;;;;;;;;;12.24;100.00;101451.13;5023796;28;20228;-72
2023/05/11 05:31:38;;;;;;;;;;;;;;;12.22;100.00;101454.88;5004716;28;19960;-72
2023/05/11 05:34:03;;;;;;;;;;;;;;;12.28;100.00;101449.91;5023551;28;19921;-71
2023/05/11 05:36:28;;;;;;;;;;;;;;;12.39;100.00;101451.78;5026041;28;20295;-72
2023/05/11 05:38:53;;;;;;;;;;;;;;;12.32;100.00;101461.31;5024659;28;20255;-72
2023/05/11 05:41:20;;;;;;;;;;;;;;;12.45;100.00;101461.22;5023355;28;19969;-72
2023/05/11 05:43:45;;;;;;;;;;;;;;;12.38;100.00;101462.66;5026346;28;19929;-71
2023/05/11 05:46:11;;;;;;;;;;;;;;;12.41;100.00;101466.00;5021767;28;19921;-72
2023/05/11 05:48:36;;;;;;;;;;;;;;;12.56;100.00;101471.19;5024254;28;19975;-72
2023/05/11 05:51:01;;;;;;;;;;;;;;;12.72;100.00;101477.09;5007473;28;20802;-72
2023/05/11 05:53:26;;;;;;;;;;;;;;;12.95;100.00;101473.63;5023256;28;20291;-72
2023/05/11 05:55:52;;;;;;;;;;;;;;;12.70;100.00;101480.91;5024871;28;19921;-72
2023/05/11 05:58:17;;;;;;;;;;;;;;;12.72;100.00;101481.66;5022158;28;19932;-72
2023/05/11 06:00:42;;;;;;;;;;;;;;;12.52;100.00;101486.72;5025524;28;20455;-73
2023/05/11 06:03:07;;;;;;;;;;;;;;;12.61;100.00;101493.25;5022267;28;20450;-72
2023/05/11 06:05:33;;;;;;;;;;;;;;;12.64;100.00;101489.44;5024622;28;19921;-72
2023/05/11 06:07:58;;;;;;;;;;;;;;;12.63;100.00;101494.00;5021193;28;20442;-72
2023/05/11 06:10:23;;;;;;;;;;;;;;;12.56;100.00;101490.91;5022149;28;20855;-72
2023/05/11 06:12:48;;;;;;;;;;;;;;;12.73;100.00;101496.84;5023615;28;19924;-72
2023/05/11 06:15:14;;;;;;;;;;;;;;;12.78;100.00;101493.78;5024162;28;19983;-72
2023/05/11 06:17:39;;;;;;;;;;;;;;;12.71;100.00;101496.94;5002064;28;20958;-72
2023/05/11 06:20:05;;;;;;;;;;;;;;;12.76;100.00;101491.22;5024570;28;20054;-72
2023/05/11 06:22:30;;;;;;;;;;;;;;;12.80;100.00;101492.69;5020407;28;19983;-72
2023/05/11 06:24:56;;;;;;;;;;;;;;;13.02;100.00;101499.13;5024585;28;19921;-72
2023/05/11 06:27:22;;;;;;;;;;;;;;;13.16;100.00;101489.94;5021453;28;19917;-72
2023/05/11 06:29:47;;;;;;;;;;;;;;;13.39;100.00;101493.50;5022738;28;20564;-72
2023/05/11 06:32:12;;;;;;;;;;;;;;;13.32;100.00;101495.84;5021483;28;20386;-73
2023/05/11 06:34:38;;;;;;;;;;;;;;;13.53;100.00;101491.59;5023577;28;19921;-72
2023/05/11 06:37:03;;;;;;;;;;;;;;;13.58;100.00;101498.31;5023529;28;19921;-72
2023/05/11 06:39:28;;;;;;;;;;;;;;;13.75;100.00;101496.13;5023964;28;19918;-72
2023/05/11 06:41:54;;;;;;;;;;;;;;;13.80;100.00;101488.50;5023317;28;20341;-72
2023/05/11 06:44:21;;;;;;;;;;;;;;;13.95;100.00;101487.25;5028252;28;20298;-72
2023/05/11 06:46:46;;;;;;;;;;;;;;;14.01;100.00;101487.75;5020300;28;19923;-72
2023/05/11 06:49:12;;;;;;;;;;;;;;;13.90;100.00;101486.78;5022666;28;20509;-72
2023/05/11 06:51:37;;;;;;;;;;;;;;;13.74;100.00;101495.25;5023698;28;19953;-73
2023/05/11 06:54:02;;;;;;;;;;;;;;;13.72;100.00;101493.69;5024104;28;20092;-72
2023/05/11 06:56:28;;;;;;;;;;;;;;;13.63;100.00;101503.38;5016400;28;19925;-72
2023/05/11 06:58:53;;;;;;;;;;;;;;;13.74;100.00;101500.66;5018834;28;19943;-72
2023/05/11 07:01:19;;;;;;;;;;;;;;;13.66;100.00;101497.69;5018775;28;19937;-72
2023/05/11 07:03:44;;;;;;;;;;;;;;;13.61;100.00;101498.09;5020920;28;20011;-72
2023/05/11 07:06:09;;;;;;;;;;;;;;;13.68;100.00;101503.84;5019737;28;20012;-72
2023/05/11 07:08:35;;;;;;;;;;;;;;;13.65;100.00;101502.25;5025173;28;19949;-72
2023/05/11 07:11:00;;;;;;;;;;;;;;;13.63;100.00;101498.81;5023286;28;19925;-72
2023/05/11 07:13:25;;;;;;;;;;;;;;;13.64;100.00;101502.38;5019917;28;19921;-72
2023/05/11 07:15:51;;;;;;;;;;;;;;;13.67;100.00;101506.69;5021225;28;19963;-72
2023/05/11 07:18:16;;;;;;;;;;;;;;;13.71;100.00;101502.75;5025402;28;20257;-72
2023/05/11 07:20:41;;;;;;;;;;;;;;;13.63;100.00;101503.38;5024013;28;19923;-72
2023/05/11 07:23:06;;;;;;;;;;;;;;;13.64;100.00;101499.66;5021379;28;19979;-72
2023/05/11 07:25:32;;;;;;;;;;;;;;;13.65;100.00;101509.47;5022255;28;19925;-72
2023/05/11 07:27:57;;;;;;;;;;;;;;;13.58;100.00;101509.13;5020666;28;19964;-72
2023/05/11 07:30:23;;;;;;;;;;;;;;;13.67;100.00;101515.63;5023377;28;20439;-72
2023/05/11 07:32:48;;;;;;;;;;;;;;;13.75;100.00;101513.16;5019927;28;21323;-72
2023/05/11 07:35:14;;;;;;;;;;;;;;;13.81;100.00;101514.50;5004492;28;19926;-72
2023/05/11 07:37:39;;;;;;;;;;;;;;;13.92;100.00;101513.63;5003469;28;19921;-72
2023/05/11 07:40:05;;;;;;;;;;;;;;;13.85;100.00;101509.72;5020057;28;19929;-72
2023/05/11 07:42:30;;;;;;;;;;;;;;;13.92;100.00;101513.63;5003789;28;19979;-72
2023/05/11 07:44:56;;;;;;;;;;;;;;;13.95;100.00;101508.84;4998383;28;19921;-72
2023/05/11 07:47:22;;;;;;;;;;;;;;;14.05;100.00;101508.09;5001400;28;20276;-72
2023/05/11 07:49:47;;;;;;;;;;;;;;;14.21;100.00;101507.69;5003029;28;19975;-72
2023/05/11 07:52:12;;;;;;;;;;;;;;;14.02;100.00;101509.19;5002594;28;19964;-72
2023/05/11 07:54:38;;;;;;;;;;;;;;;14.23;100.00;101509.28;5005700;28;19921;-72
2023/05/11 07:57:04;;;;;;;;;;;;;;;14.37;100.00;101510.84;5004275;28;20363;-72
2023/05/11 07:59:29;;;;;;;;;;;;;;;14.38;100.00;101509.84;5019241;28;19921;-72
2023/05/11 08:01:55;;;;;;;;;;;;;;;14.50;100.00;101509.78;5004107;28;20330;-72
2023/05/11 08:04:20;;;;;;;;;;;;;;;14.53;100.00;101505.00;5006712;28;19933;-72
2023/05/11 08:06:45;;;;;;;;;;;;;;;14.62;100.00;101499.78;5007055;28;19925;-72
2023/05/11 08:09:10;;;;;;;;;;;;;;;14.74;100.00;101504.19;5003174;28;19925;-72
2023/05/11 08:11:36;;;;;;;;;;;;;;;14.52;100.00;101505.13;5004976;28;19922;-72
2023/05/11 08:14:02;;;;;;;;;;;;;;;14.71;100.00;101504.47;5005482;28;19959;-72
2023/05/11 08:16:27;;;;;;;;;;;;;;;14.79;100.00;101509.22;5000261;28;19925;-73
2023/05/11 08:18:53;;;;;;;;;;;;;;;14.78;100.00;101510.19;5006791;28;20260;-72
2023/05/11 08:21:18;;;;;;;;;;;;;;;14.92;100.00;101511.72;4995499;28;20340;-72
2023/05/11 08:23:43;;;;;;;;;;;;;;;14.97;100.00;101506.78;5009104;28;20439;-72
2023/05/11 08:26:09;;;;;;;;;;;;;;;14.81;100.00;101516.22;5022822;28;21556;-72
2023/05/11 08:28:34;;;;;;;;;;;;;;;14.64;100.00;101509.50;5006645;28;19929;-72
2023/05/11 08:31:00;;;;;;;;;;;;;;;14.81;100.00;101504.53;5005292;28;20368;-72
2023/05/11 08:33:26;;;;;;;;;;;;;;;15.00;100.00;101509.22;5007867;28;19921;-72
2023/05/11 08:35:51;;;;;;;;;;;;;;;15.14;100.00;101514.28;5002556;28;20366;-72
2023/05/11 08:38:17;;;;;;;;;;;;;;;15.27;100.00;101515.94;5022178;28;19917;-73
2023/05/11 08:40:46;;;;;;;;;;;;;;;15.25;100.00;101509.78;5021839;28;19928;-72
2023/05/11 08:43:12;;;;;;;;;;;;;;;15.26;100.00;101509.66;5007722;28;20263;-72
2023/05/11 08:45:37;;;;;;;;;;;;;;;15.38;100.00;101512.28;5021252;28;20443;-72
2023/05/11 08:48:03;;;;;;;;;;;;;;;15.48;100.00;101505.06;5023970;28;19929;-72
2023/05/11 08:50:28;;;;;;;;;;;;;;;15.54;100.00;101507.22;5021118;28;19925;-72
2023/05/11 08:52:53;;;;;;;;;;;;;;;15.60;100.00;101508.53;5004821;28;19929;-72
2023/05/11 08:55:19;;;;;;;;;;;;;;;15.72;100.00;101498.47;5008237;28;20311;-72
2023/05/11 08:57:45;;;;;;;;;;;;;;;15.98;100.00;101511.53;5001110;28;20387;-73
2023/05/11 09:00:11;;;;;;;;;;;;;;;16.07;100.00;101499.03;5002006;28;19926;-73
2023/05/11 09:02:36;;;;;;;;;;;;;;;16.10;100.00;101502.28;4992057;28;19921;-73
2023/05/11 09:05:03;;;;;;;;;;;;;;;16.28;100.00;101494.34;4991772;28;20313;-73
2023/05/11 09:07:28;;;;;;;;;;;;;;;16.68;100.00;101489.78;4993798;28;20027;-72
2023/05/11 09:09:53;;;;;;;;;;;;;;;16.89;100.00;101499.59;4994494;28;20288;-72
2023/05/11 09:12:19;;;;;;;;;;;;;;;16.74;100.00;101491.91;4997247;28;20376;-73
2023/05/11 09:14:45;;;;;;;;;;;;;;;16.44;100.00;101496.50;4990714;28;20303;-74
2023/05/11 09:17:11;;;;;;;;;;;;;;;16.49;100.00;101496.06;4993808;28;20043;-73
2023/05/11 09:19:36;;;;;;;;;;;;;;;16.67;100.00;101489.94;4993221;28;20368;-71
2023/05/11 09:22:01;;;;;;;;;;;;;;;16.49;100.00;101504.19;4992906;28;19921;-72
2023/05/11 09:24:27;;;;;;;;;;;;;;;16.62;100.00;101498.47;4993274;28;19925;-71
2023/05/11 09:27:08;;;;;;;;;;;;;;;16.40;100.00;101497.78;4991423;28;20344;-71
2023/05/11 09:29:33;;;;;;;;;;;;;;;16.26;100.00;101503.63;4992061;28;20009;-71
2023/05/11 09:31:58;;;;;;;;;;;;;;;16.00;100.00;101493.31;5013787;28;20319;-71
2023/05/11 09:34:23;;;;;;;;;;;;;;;15.55;100.00;101502.69;4991329;28;20526;-71
2023/05/11 09:36:49;;;;;;;;;;;;;;;15.64;100.00;101504.53;4993588;28;20492;-71
2023/05/11 09:39:15;;;;;;;;;;;;;;;15.52;100.00;101503.78;4991868;28;19928;-72
2023/05/11 09:41:41;;;;;;;;;;;;;;;15.50;100.00;101502.22;4973012;28;20460;-71
2023/05/11 09:44:07;;;;;;;;;;;;;;;15.54;100.00;101506.38;4988334;28;19925;-71
2023/05/11 09:46:33;;;;;;;;;;;;;;;15.66;100.00;101504.44;4996765;28;20371;-71
2023/05/11 09:48:59;;;;;;;;;;;;;;;15.78;100.00;101506.03;4990998;28;20017;-71
2023/05/11 09:51:29;;;;;;;;;;;;;;;15.69;100.00;101504.16;5006671;28;19921;-71
2023/05/11 09:53:54;;;;;;;;;;;;;;;15.93;100.00;101509.22;5011110;28;19925;-71
2023/05/11 09:56:20;;;;;;;;;;;;;;;15.91;100.00;101511.22;5010691;28;20368;-71
2023/05/11 09:58:46;;;;;;;;;;;;;;;15.81;100.00;101513.03;4992242;28;20451;-71
2023/05/11 10:01:11;;;;;;;;;;;;;;;15.81;100.00;101511.16;4992758;28;19921;-71
2023/05/11 10:04:07;;;;;;;;;;;;;;;15.92;100.00;101507.53;4993998;28;20356;-71
2023/05/11 10:06:45;;;;;;;;;;;;;;;15.75;100.00;101506.31;5004649;28;19921;-71
2023/05/11 10:09:11;;;;;;;;;;;;;;;15.67;100.00;101509.69;4989663;28;19932;-71
2023/05/11 10:11:36;;;;;;;;;;;;;;;15.61;100.00;101504.84;4975095;28;20567;-71
2023/05/11 10:14:02;;;;;;;;;;;;;;;15.48;100.00;101512.31;4993173;28;19924;-71
2023/05/11 10:16:27;;;;;;;;;;;;;;;15.46;100.00;101509.75;4992304;28;19925;-71
2023/05/11 10:18:52;;;;;;;;;;;;;;;15.58;100.00;101508.66;4990704;28;19972;-71
2023/05/11 10:21:17;;;;;;;;;;;;;;;15.41;100.00;101503.91;4995717;28;20012;-71
2023/05/11 10:23:43;;;;;;;;;;;;;;;15.51;100.00;101506.63;5005459;28;19929;-71
2023/05/11 10:26:08;;;;;;;;;;;;;;;15.55;100.00;101508.94;4993358;28;19927;-71
2023/05/11 10:28:33;;;;;;;;;;;;;;;15.45;100.00;101505.34;4991602;28;19958;-71
2023/05/11 10:30:58;;;;;;;;;;;;;;;15.25;100.00;101510.63;4993996;28;19925;-71
2023/05/11 10:33:24;;;;;;;;;;;;;;;15.18;100.00;101511.31;4991703;28;19926;-71
2023/05/11 10:35:49;;;;;;;;;;;;;;;14.99;100.00;101510.22;4990312;28;20315;-71
2023/05/11 10:38:15;;;;;;;;;;;;;;;14.96;100.00;101507.75;4994102;28;19926;-71
2023/05/11 10:40:41;;;;;;;;;;;;;;;15.01;100.00;101519.03;5010780;28;20114;-72
2023/05/11 10:43:25;;;;;;;;;;;;;;;14.97;100.00;101515.72;4992982;28;19936;-71
2023/05/11 10:45:51;;;;;;;;;;;;;;;14.97;100.00;101512.19;4996545;28;19964;-71
2023/05/11 10:48:19;;;;;;;;;;;;;;;14.96;100.00;101515.88;4995162;28;19929;-71
2023/05/11 10:50:56;;;;;;;;;;;;;;;14.91;100.00;101518.13;4993964;28;20361;-71
2023/05/11 10:53:24;;;;;;;;;;;;;;;14.82;100.00;101512.53;4993371;28;19921;-71
2023/05/11 10:55:56;;;;;;;;;;;;;;;14.78;100.00;101508.38;4995369;28;19921;-71
2023/05/11 10:58:40;;;;;;;;;;;;;;;14.74;100.00;101516.84;4990667;28;20238;-71
2023/05/11 11:01:17;;;;;;;;;;;;;;;14.72;100.00;101525.09;4993662;28;19930;-71
2023/05/11 11:03:54;;;;;;;;;;;;;;;14.61;100.00;101531.38;4990912;28;19948;-71
2023/05/11 11:06:23;;;;;;;;;;;;;;;14.62;100.00;101529.50;4992476;28;19921;-72
2023/05/11 11:09:00;;;;;;;;;;;;;;;14.64;100.00;101532.94;4990503;28;20000;-72
2023/05/11 11:11:30;;;;;;;;;;;;;;;14.54;100.00;101530.16;4993464;28;20390;-71
2023/05/11 11:13:55;;;;;;;;;;;;;;;14.46;100.00;101521.84;4989149;28;19932;-71
2023/05/11 11:16:23;;;;;;;;;;;;;;;14.54;100.00;101532.88;5002488;28;19921;-72
2023/05/11 11:18:48;;;;;;;;;;;;;;;14.54;100.00;101528.34;5020599;28;19922;-72
2023/05/11 11:21:14;;;;;;;;;;;;;;;14.63;100.00;101531.22;4994186;28;19952;-72
2023/05/11 11:23:43;;;;;;;;;;;;;;;14.59;100.00;101511.72;4994125;28;19980;-72
2023/05/11 11:26:09;;;;;;;;;;;;;;;14.69;100.00;101528.06;4989264;28;19964;-71
2023/05/11 11:28:53;;;;;;;;;;;;;;;14.65;100.00;101524.72;5012593;28;19933;-71
2023/05/11 11:31:28;;;;;;;;;;;;;;;14.65;100.00;101511.22;4997991;28;19922;-71
2023/05/11 11:33:57;;;;;;;;;;;;;;;14.58;100.00;101519.94;5017366;28;19933;-71
2023/05/11 11:36:41;;;;;;;;;;;;;;;14.57;100.00;101521.81;4991096;28;19925;-71
2023/05/11 11:39:06;;;;;;;;;;;;;;;14.66;100.00;101515.63;4990132;28;20102;-71
2023/05/11 11:41:32;;;;;;;;;;;;;;;14.85;100.00;101511.38;4998026;28;20199;-71
2023/05/11 11:43:58;;;;;;;;;;;;;;;14.90;100.00;101511.00;4991317;28;20388;-71
2023/05/11 11:46:27;;;;;;;;;;;;;;;14.94;100.00;101515.16;4993325;28;19925;-71
2023/05/11 11:49:04;;;;;;;;;;;;;;;15.03;100.00;101518.91;4994978;28;19921;-71
2023/05/11 11:51:31;;;;;;;;;;;;;;;15.20;100.00;101510.22;4997498;28;19921;-71
2023/05/11 11:53:57;;;;;;;;;;;;;;;15.05;100.00;101503.41;5002405;28;20379;-71
2023/05/11 11:56:22;;;;;;;;;;;;;;;14.97;100.00;101509.47;5012894;28;19925;-71
2023/05/11 11:58:47;;;;;;;;;;;;;;;14.85;100.00;101512.22;5014132;28;20020;-71
2023/05/11 12:01:23;;;;;;;;;;;;;;;14.76;100.00;101513.03;5011222;28;20372;-71
2023/05/11 12:04:16;;;;;;;;;;;;;;;14.70;100.00;101511.69;4989135;28;20028;-71
2023/05/11 12:06:43;;;;;;;;;;;;;;;14.74;100.00;101515.00;4995666;28;20316;-71
2023/05/11 12:09:08;;;;;;;;;;;;;;;14.67;100.00;101514.66;5001670;28;19925;-71
2023/05/11 12:11:33;;;;;;;;;;;;;;;14.70;100.00;101508.16;5017348;28;19932;-71
2023/05/11 12:13:59;;;;;;;;;;;;;;;14.61;100.00;101517.88;4994021;28;19935;-71
2023/05/11 12:16:24;;;;;;;;;;;;;;;14.40;100.00;101517.81;4997699;28;20281;-71
2023/05/11 12:18:50;;;;;;;;;;;;;;;14.19;100.00;101517.75;4997407;28;19921;-71
2023/05/11 12:21:19;;;;;;;;;;;;;;;14.25;100.00;101526.22;5014405;28;19964;-70
2023/05/11 12:23:52;;;;;;;;;;;;;;;14.13;100.00;101524.53;5000274;28;20015;-71
2023/05/11 12:26:18;;;;;;;;;;;;;;;14.24;100.00;101526.34;4993274;28;19921;-71